Latest Coastal Weather Observations for Gabo Island

IDT60701

Issued at 6:52 pm EST Friday 28 July 2017 (issued every 10 minutes, with the page automatically refreshed every 10 minutes)

About coastal observations | Map of coastal stations | Coastal observations for TAS | Marine services | Other Formats
Station Details ID: 084016 Name: GABO ISLAND LIGHTHOUSE Lat: -37.57 Lon: 149.92 Height: 15.2 m
Data from the previous 72 hours. | See also: Recent months at Gabo Island
Date/Time
EST
Temp
°C
Wind Pressure Rain since
9am
mm
Weather Cloud Vis
km
Sea
Height
m
Swell
Dir  Spd
kts
Gust
kts
hPa Trend Height
m
Period
s
Dir
28/06:30pm 12.1 WSW 18 23 1018.0 - 0.0 - - - - - - -
28/06:00pm 12.2 WSW 21 27 1017.4 - 0.0 - - - - - - -
28/05:30pm 12.3 WSW 21 29 1017.0 - 0.0 - - - - - - -
28/05:00pm 12.3 WSW 25 30 1016.7 - 0.0 - - - - - - -
28/04:30pm 12.8 WSW 28 35 1016.3 - 0.0 - - - - - - -
28/04:00pm 13.1 WSW 26 32 1015.8 - 0.0 - - - - - - -
28/03:30pm 13.3 WSW 25 31 1015.5 - 0.0 - - - - - - -
28/03:00pm 13.4 SW 28 35 1014.9 - 0.0 Fine Partly cloudy 20 3 1.0 - -
28/02:30pm 13.3 WSW 29 36 1014.8 - 0.0 - - - - - - -
28/02:11pm 13.2 WSW 32 42 1014.6 - 0.0 - - - - - - -
28/02:00pm 13.7 WSW 29 38 1014.6 - 0.0 - - - - - - -
28/01:30pm 13.6 WSW 30 37 1014.1 - 0.0 - - - - - - -
28/01:00pm 13.3 WSW 27 35 1014.0 - 0.0 - - - - - - -
28/12:30pm 13.4 SW 31 37 1014.1 - 0.0 - - - - - - -
28/12:00pm 13.3 WSW 28 35 1014.1 - 0.0 - - - - - - -
28/11:30am 13.2 WSW 26 32 1014.0 - 0.0 - - - - - - -
28/11:00am 12.7 WSW 23 29 1014.2 - 0.0 - - - - - - -
28/10:30am 12.3 W 23 28 1014.2 - 0.0 - - - - - - -
28/10:00am 11.3 WSW 18 24 1014.5 - 0.0 - - - - - - -
28/09:30am 10.4 W 16 20 1014.4 - 0.0 - - - - - - -
28/09:00am 9.4 WNW 9 14 1014.8 - 2.2 Rain Mostly cloudy 20 1 1.0 - -
28/08:30am 9.4 WNW 10 15 1014.7 - 2.2 - - - - - - -
28/08:00am 10.3 WSW 15 17 1014.5 - 2.2 - - - - - - -
28/07:30am 9.4 W 10 13 1014.2 - 2.0 - - - - - - -
28/07:00am 10.1 WSW 3 5 1013.6 - 2.0 - - - - - - -
28/06:30am 9.4 NNW 7 8 1013.4 - 2.0 - - - - - - -
28/06:00am 9.5 N 11 13 1013.0 - 2.0 Recent precip. - - - - - -
28/05:30am 11.2 NE 7 8 1012.7 - 1.8 - - - - - - -
28/05:00am 8.9 N 7 8 1013.0 - 1.8 - - - - - - -
28/04:30am 9.0 NW 8 11 1013.4 - 1.4 - - - - - - -
28/04:00am 11.9 NW 11 17 1013.5 - 0.0 - - - - - - -
28/03:30am 12.3 W 3 7 1012.8 - 0.0 - - - - - - -
28/03:00am 11.6 NNE 7 8 1012.9 - 0.0 Fine Cloudy 30 1 1.0 - -
28/02:30am 10.9 NNE 7 9 1012.7 - 0.0 - - - - - - -
28/02:00am 10.3 NW 6 8 1013.8 - 0.0 - - - - - - -
28/01:30am 10.3 WNW 7 11 1014.5 - 0.0 - - - - - - -
28/01:00am 10.3 W 10 12 1014.7 - 0.0 - - - - - - -
28/12:30am 10.7 NW 7 10 1015.3 - 0.0 - - - - - - -
28/12:00am 10.4 N 5 5 1015.8 - 0.0 - - - - - - -
 
Date/Time
EST
Temp
°C
Wind Pressure Rain since
9am
mm
Weather Cloud Vis
km
Sea
Height
m
Swell
Dir  Spd
kts
Gust
kts
hPa Trend Height
m
Period
s
Dir
27/11:30pm 11.3 N 8 11 1016.0 - 0.0 - - - - - - -
27/11:00pm 12.2 N 15 19 1015.7 - 0.0 - - - - - - -
27/10:30pm 12.6 N 18 23 1015.9 - 0.0 - - - - - - -
27/10:00pm 12.5 N 14 19 1016.4 - 0.0 - - - - - - -
27/09:30pm 12.5 NNE 16 21 1016.6 - 0.0 - - - - - - -
27/09:00pm 12.6 NNE 22 25 1016.3 - 0.0 Fine Mostly cloudy 40 2 1.0 - -
27/08:30pm 12.5 NNE 21 25 1016.9 - 0.0 - - - - - - -
27/08:00pm 12.6 NNE 19 23 1017.3 - 0.0 - - - - - - -
27/07:30pm 12.5 NNE 20 25 1017.7 - 0.0 - - - - - - -
27/07:00pm 12.1 NNE 20 25 1017.8 - 0.0 - - - - - - -
27/06:30pm 12.0 NNE 19 24 1018.2 - 0.0 - - - - - - -
27/06:00pm 12.0 NNE 17 23 1018.4 - 0.0 - - - - - - -
27/05:30pm 11.9 NNE 15 18 1018.9 - 0.0 - - - - - - -
27/05:00pm 12.5 NNE 18 21 1018.9 - 0.0 - - - - - - -
27/04:30pm 12.7 NNE 18 21 1019.3 - 0.0 - - - - - - -
27/04:00pm 12.9 NNE 18 21 1019.6 - 0.0 - - - - - - -
27/03:30pm 13.4 NNE 17 21 1019.7 - 0.0 - - - - - - -
27/03:00pm 13.7 NE 15 19 1020.3 - 0.0 Fine Mostly cloudy 40 1 1.0 - -
27/02:30pm 13.9 NE 15 18 1020.4 - 0.0 - - - - - - -
27/02:00pm 13.8 NE 12 14 1020.5 - 0.0 - - - - - - -
27/01:30pm 13.9 ENE 11 14 1021.1 - 0.0 - - - - - - -
27/01:00pm 14.2 SW 6 8 1021.7 - 0.0 - - - - - - -
27/12:30pm 13.8 W 7 9 1022.3 - 0.0 - - - - - - -
27/12:00pm 13.6 W 8 11 1023.1 - 0.0 - - - - - - -
27/11:30am 13.6 W 9 11 1023.4 - 0.0 - - - - - - -
27/11:00am 13.3 W 8 11 1023.9 - 0.0 - - - - - - -
27/10:30am 13.0 WNW 9 12 1024.3 - 0.0 - - - - - - -
27/10:00am 12.0 NW 9 12 1024.4 - 0.0 - - - - - - -
27/09:30am 11.4 WNW 9 12 1024.2 - 0.0 - - - - - - -
27/09:00am 11.0 WNW 8 13 1024.0 - 0.0 Fine Partly cloudy 40 1 3.0 - -
27/08:30am 10.3 WNW 9 12 1024.1 - 0.0 - - - - - - -
27/08:00am 10.0 NW 8 11 1023.5 - 0.0 - - - - - - -
27/07:30am 9.5 NW 8 10 1023.3 - 0.0 - - - - - - -
27/07:00am 9.4 NW 7 9 1023.2 - 0.0 - - - - - - -
27/06:30am 9.6 WNW 8 11 1022.8 - 0.0 - - - - - - -
27/06:00am 10.0 W 17 20 1022.5 - 0.0 - - - - - - -
27/05:30am 9.9 WSW 20 25 1022.5 - 0.0 - - - - - - -
27/05:00am 10.1 W 17 22 1022.3 - 0.0 - - - - - - -
27/04:30am 10.2 WSW 18 23 1022.3 - 0.0 - - - - - - -
27/04:00am 9.8 WSW 18 21 1022.1 - 0.0 - - - - - - -
27/03:30am 9.7 WSW 17 23 1022.2 - 0.0 - - - - - - -
27/03:00am 10.0 W 19 23 1022.3 - 0.0 Fine Mostly cloudy 30 3 3.0 - -
27/02:30am 9.8 W 18 22 1022.0 - 0.0 - - - - - - -
27/02:00am 9.8 W 19 23 1021.8 - 0.0 - - - - - - -
27/01:30am 10.0 W 20 24 1021.6 - 0.0 - - - - - - -
27/01:00am 10.3 W 20 25 1021.4 - 0.0 - - - - - - -
27/12:30am 10.4 W 21 26 1021.5 - 0.0 - - - - - - -
27/12:00am 10.4 WSW 22 27 1021.5 - 0.0 - - - - - - -
 
Date/Time
EST
Temp
°C
Wind Pressure Rain since
9am
mm
Weather Cloud Vis
km
Sea
Height
m
Swell
Dir  Spd
kts
Gust
kts
hPa Trend Height
m
Period
s
Dir
26/11:30pm 10.5 WSW 23 29 1021.4 - 0.0 - - - - - - -
26/11:00pm 10.3 W 24 31 1021.3 - 0.0 - - - - - - -
26/10:30pm 10.7 WSW 23 28 1021.0 - 0.0 - - - - - - -
26/10:00pm 10.8 WSW 24 30 1020.5 - 0.0 - - - - - - -
26/09:30pm 10.6 W 23 29 1020.2 - 0.0 - - - - - - -
26/09:00pm 10.8 W 24 28 1019.8 - 0.0 Fine Mostly clear 30 5 3.0 - -
26/08:30pm 11.0 W 24 29 1019.5 - 0.0 - - - - - - -
26/08:00pm 10.9 W 23 29 1019.2 - 0.0 - - - - - - -
26/07:30pm 11.3 WSW 25 34 1018.8 - 0.0 - - - - - - -
26/07:00pm 11.4 WSW 27 35 1018.3 - 0.0 - - - - - - -
26/06:30pm 11.2 W 27 35 1017.7 - 0.0 - - - - - - -
26/06:00pm 11.5 WSW 27 36 1017.1 - 0.0 - - - - - - -
26/05:30pm 11.6 WSW 28 35 1016.7 - 0.0 - - - - - - -
26/05:00pm 12.0 W 28 36 1016.4 - 0.0 - - - - - - -
26/04:38pm 12.6 WSW 29 39 1015.8 - 0.0 - - - - - - -
26/04:30pm 12.7 WSW 28 37 1015.6 - 0.0 - - - - - - -
26/04:05pm 13.2 WSW 27 37 1015.1 - 0.0 - - - - - - -
26/04:00pm 12.9 WSW 30 38 1014.9 - 0.0 - - - - - - -
26/03:30pm 13.2 WSW 31 41 1014.1 - 0.0 - - - - - - -
26/03:03pm 13.7 WSW 35 45 1013.2 - 0.0 - - - - - - -
26/03:00pm 14.2 WSW 34 45 1013.0 - 0.0 Fine Mostly cloudy 20 5 3.0 - -
26/02:30pm 15.0 WSW 31 42 1012.5 - 0.0 - - - - - - -
26/02:02pm 15.5 WSW 33 43 1011.8 - 0.0 - - - - - - -
26/02:00pm 15.5 WSW 33 42 1011.8 - 0.0 - - - - - - -
26/01:32pm 15.6 WSW 30 40 1011.5 - 0.0 - - - - - - -
26/01:30pm 15.6 WSW 29 37 1011.5 - 0.0 - - - - - - -
26/01:04pm 15.6 WSW 35 48 1011.1 - 0.0 - - - - - - -
26/01:00pm 15.5 WSW 38 43 1010.9 - 0.0 - - - - - - -
26/12:59pm 15.6 WSW 38 43 1010.9 - 0.0 - - - - - - -
26/12:49pm 15.8 WSW 25 36 1011.1 - 0.0 - - - - - - -
26/12:30pm 16.2 WSW 26 32 1011.2 - 0.0 - - - - - - -
26/12:06pm 16.1 WSW 28 38 1011.2 - 0.0 - - - - - - -
26/12:00pm 15.8 WSW 23 35 1011.6 - 0.0 - - - - - - -
26/11:41am 16.3 WSW 27 37 1011.5 - 0.0 - - - - - - -
26/11:30am 16.1 WSW 29 36 1011.5 - 0.0 - - - - - - -
26/11:01am 15.9 WSW 24 34 1011.6 - 0.0 - - - - - - -
26/11:00am 16.0 WSW 24 31 1011.6 - 0.0 - - - - - - -
26/10:40am 15.8 WSW 21 31 1011.6 - 0.0 - - - - - - -
26/10:30am 15.7 WSW 18 23 1011.8 - 0.0 - - - - - - -
26/10:00am 15.3 W 22 32 1011.9 - 0.0 - - - - - - -
26/09:52am 15.1 W 16 26 1011.9 - 0.0 - - - - - - -
26/09:30am 14.3 WSW 12 15 1011.7 - 0.0 - - - - - - -
26/09:00am 13.8 W 11 14 1011.5 - 0.0 Fine Mostly clear 40 1 1.0 - -
26/08:30am 13.0 W 9 13 1011.4 - 0.0 - - - - - - -
26/08:00am 12.0 W 10 13 1011.2 - 0.0 - - - - - - -
26/07:30am 11.1 W 9 11 1011.2 - 0.0 - - - - - - -
26/07:00am 10.7 W 7 9 1011.0 - 0.0 - - - - - - -
26/06:30am 10.6 W 8 9 1010.7 - 0.0 - - - - - - -
26/06:00am 11.1 W 6 8 1010.3 - 0.0 - - - - - - -
26/05:30am 11.6 WSW 8 9 1010.2 - 0.0 - - - - - - -
26/05:00am 12.8 WSW 8 12 1009.9 - 0.0 - - - - - - -
26/04:30am 12.5 NW 8 9 1009.7 - 0.0 - - - - - - -
26/04:00am 12.6 NW 7 11 1009.8 - 0.0 - - - - - - -
26/03:30am 12.9 NW 8 12 1009.9 - 0.0 - - - - - - -
26/03:00am 12.7 NW 6 9 1010.1 - 0.0 Lightning Clear 40 <0.5 1.0 - -
26/02:30am 12.5 W 8 9 1010.3 - 0.0 - - - - - - -
26/02:00am 13.1 WSW 10 13 1010.4 - 0.0 - - - - - - -
26/01:30am 13.6 SW 14 17 1010.5 - 0.0 - - - - - - -
26/01:00am 13.8 SW 13 17 1010.4 - 0.0 - - - - - - -
26/12:30am 14.3 SW 14 21 1010.7 - 0.0 - - - - - - -
26/12:00am 15.5 W 17 23 1010.7 - 0.0 - - - - - - -
 
Date/Time
EST
Temp
°C
Wind Pressure Rain since
9am
mm
Weather Cloud Vis
km
Sea
Height
m
Swell
Dir  Spd
kts
Gust
kts
hPa Trend Height
m
Period
s
Dir
25/11:58pm 15.2 W 16 26 1010.7 - 0.0 - - - - - - -
25/11:44pm 16.3 WNW 15 23 1010.9 - 0.0 - - - - - - -
25/11:30pm 16.1 NW 9 13 1011.1 - 0.0 - - - - - - -
25/11:00pm 15.7 NNW 10 13 1010.9 - 0.0 - - - - - - -
25/10:30pm 15.4 NNW 9 12 1011.2 - 0.0 - - - - - - -
25/10:00pm 15.3 NNW 9 12 1011.2 - 0.0 - - - - - - -
25/09:30pm 14.5 NNW 8 11 1011.2 - 0.0 - - - - - - -
25/09:00pm 15.4 NNW 8 12 1011.7 - 0.0 Fine Clear 40 1 1.0 - -
25/08:30pm 15.3 N 7 10 1011.8 - 0.0 - - - - - - -
25/08:00pm 15.0 N 7 11 1012.3 - 0.0 - - - - - - -
25/07:30pm 14.9 N 6 9 1012.4 - 0.0 - - - - - - -
25/07:00pm 15.5 N 6 9 1012.5 - 0.0 - - - - - - -

Other Formats:

Comma delimited format used in spreadsheet applications
http://www.bom.gov.au/fwo/IDT60701/IDT60701.94933.axf

JavaScript Object Notation format (JSON) in row-major order
http://www.bom.gov.au/fwo/IDT60701/IDT60701.94933.json